Reading, United Kingdom
Current Conditions -  °F | °C
As of 11:50 AM on Thursday 23 Oct 2014 (Local Time) from EGUB Reporting Station
Scattered Clouds Scattered Clouds  
Wind Chill: 59°   Ceiling: Unl
Heat Index: 59°   Visibility: 6mi
Dew Point: 52°   Wind: 15mph
Humidity: 77%   Direction: 190°S
Pressure: 30.09"   Gusts: NA
Location:  51.45°N, 0.99°W
Report Text: EGUB 231050Z 19013KT 9999 FEW018 SCT035 15/11 Q1019 BLU TEMPO SCT018 WHT
Loading
Personal Weather Stations






























Interactive Weather Map New forecast layout! Learn more

10-Day Weather Forecast

Advertisements
Track Severe Weather on mobile